createdAt,value
2018-11-29T00:04:12.823Z,100056.86
2018-11-29T00:09:35.617Z,100022.32
2018-11-29T00:14:54.357Z,100026.97
2018-11-29T00:20:14.972Z,100035.52
2018-11-29T00:25:33.485Z,100054.14
2018-11-29T00:30:52.373Z,100052.66
2018-11-29T00:36:11.062Z,100042.56
2018-11-29T00:41:29.699Z,100047.78
2018-11-29T00:46:48.233Z,100044.58
2018-11-29T00:52:06.826Z,100023.25
2018-11-29T00:57:25.348Z,100018.16
2018-11-29T01:02:44.033Z,100035.14
2018-11-29T01:08:02.693Z,100039.42
2018-11-29T01:13:22.163Z,100037.54
2018-11-29T01:18:40.766Z,100042.33
2018-11-29T01:23:59.468Z,100050.19
2018-11-29T01:29:18.403Z,100038.95
2018-11-29T01:34:37.030Z,100036.27
2018-11-29T01:39:57.118Z,100040.70
2018-11-29T01:45:15.834Z,100048.71
2018-11-29T01:50:34.833Z,100036.33
2018-11-29T01:55:53.536Z,100037.64
2018-11-29T02:01:12.138Z,100038.18
2018-11-29T02:06:30.751Z,100032.11
2018-11-29T02:11:49.309Z,100028.78
2018-11-29T02:17:08.391Z,100019.77
2018-11-29T02:22:27.165Z,100024.59
2018-11-29T02:27:45.692Z,100011.42
2018-11-29T02:33:04.304Z,100021.24
2018-11-29T02:38:22.937Z,100011.34
2018-11-29T02:43:42.153Z,100010.55
2018-11-29T02:49:00.790Z,100002.13
2018-11-29T02:54:20.001Z,100003.45
2018-11-29T02:59:38.636Z,99992.22
2018-11-29T03:04:59.497Z,99988.88
2018-11-29T03:10:23.297Z,99984.05
2018-11-29T03:15:41.951Z,99985.00
2018-11-29T03:21:01.616Z,99977.52
2018-11-29T03:26:20.171Z,99974.88
2018-11-29T03:31:38.679Z,99983.92
2018-11-29T03:36:58.120Z,99979.45
2018-11-29T03:42:16.755Z,99986.28
2018-11-29T03:47:35.556Z,99987.55
2018-11-29T03:52:54.092Z,99989.58
2018-11-29T03:58:13.221Z,99985.66
2018-11-29T04:03:31.832Z,99974.80
2018-11-29T04:08:50.770Z,99981.69
2018-11-29T04:14:09.276Z,99988.22
2018-11-29T04:19:28.014Z,99982.19
2018-11-29T04:24:46.513Z,99981.60
2018-11-29T04:30:08.337Z,99981.81
2018-11-29T04:35:27.238Z,99974.34
2018-11-29T04:40:45.798Z,99984.66
2018-11-29T04:46:44.137Z,99975.78
2018-11-29T04:52:02.693Z,99961.13
2018-11-29T04:57:21.312Z,99969.22
2018-11-29T05:02:39.922Z,99964.68
2018-11-29T05:07:59.614Z,99966.95
2018-11-29T05:13:18.153Z,99943.36
2018-11-29T05:18:36.751Z,99953.73
2018-11-29T05:23:56.217Z,99930.90
2018-11-29T05:29:14.765Z,99931.77
2018-11-29T05:34:33.570Z,99944.86
2018-11-29T05:39:52.209Z,99934.38
2018-11-29T05:45:11.604Z,99934.20
2018-11-29T05:50:30.114Z,99938.00
2018-11-29T05:55:48.690Z,99947.25
2018-11-29T06:01:12.374Z,99945.85
2018-11-29T06:06:30.945Z,99934.58
2018-11-29T06:11:49.494Z,99939.86
2018-11-29T06:17:08.713Z,99947.87
2018-11-29T06:22:28.010Z,99946.97
2018-11-29T06:27:46.694Z,99943.91
2018-11-29T06:33:06.268Z,99939.91
2018-11-29T06:38:24.803Z,99941.23
2018-11-29T06:43:43.313Z,99937.59
2018-11-29T06:49:02.722Z,99930.07
2018-11-29T06:54:21.298Z,99923.67
2018-11-29T06:59:39.860Z,99914.64
2018-11-29T07:04:59.257Z,99919.55
2018-11-29T07:10:22.670Z,99896.44
2018-11-29T07:15:41.351Z,99886.17
2018-11-29T07:21:11.007Z,99887.95
2018-11-29T07:26:29.547Z,99878.45
2018-11-29T07:31:48.175Z,99867.89
2018-11-29T07:37:07.237Z,99881.05
2018-11-29T07:42:26.386Z,99862.56
2018-11-29T07:47:45.486Z,99865.33
2018-11-29T07:53:04.051Z,99862.00
2018-11-29T07:58:23.316Z,99857.04
2018-11-29T08:03:42.130Z,99856.75
2018-11-29T08:09:00.662Z,99861.31
2018-11-29T08:14:19.191Z,99870.27
2018-11-29T08:19:37.731Z,99866.38
2018-11-29T08:24:56.312Z,99863.05
2018-11-29T08:30:15.686Z,99847.53
2018-11-29T08:35:34.161Z,99842.14
2018-11-29T08:40:52.746Z,99842.08
2018-11-29T08:46:11.368Z,99831.41
2018-11-29T08:51:29.968Z,99836.73
2018-11-29T08:56:48.540Z,99833.25
2018-11-29T09:02:07.106Z,99840.63
2018-11-29T09:07:25.617Z,99841.32
2018-11-29T09:12:44.122Z,99853.83
2018-11-29T09:18:02.636Z,99858.62
2018-11-29T09:23:21.217Z,99868.55
2018-11-29T09:28:39.718Z,99886.18
2018-11-29T09:33:58.292Z,99886.11
2018-11-29T09:39:16.850Z,99892.73
2018-11-29T09:44:35.376Z,99879.86
2018-11-29T09:49:53.912Z,99881.58
2018-11-29T09:55:17.273Z,99880.25
2018-11-29T10:00:35.866Z,99859.78
2018-11-29T10:05:54.357Z,99861.20
2018-11-29T10:11:12.981Z,99852.78
2018-11-29T10:16:31.542Z,99847.98
2018-11-29T10:21:50.082Z,99842.69
2018-11-29T10:27:08.630Z,99835.30
2018-11-29T10:32:27.111Z,99825.26
2018-11-29T10:37:45.620Z,99804.34
2018-11-29T10:43:04.736Z,99787.27
2018-11-29T10:48:24.410Z,99771.00
2018-11-29T10:53:43.030Z,99797.90
2018-11-29T10:59:01.569Z,99775.95
2018-11-29T11:04:20.078Z,99759.91
2018-11-29T11:09:39.425Z,99731.69
2018-11-29T11:14:57.917Z,99729.03
2018-11-29T11:20:16.590Z,99747.56
2018-11-29T11:25:35.214Z,99742.27
2018-11-29T11:30:54.653Z,99758.23
2018-11-29T11:36:13.175Z,99776.97
2018-11-29T11:41:32.245Z,99792.56
2018-11-29T11:46:50.742Z,99764.16
2018-11-29T11:52:09.447Z,99761.06
2018-11-29T11:57:27.836Z,99751.19
2018-11-29T12:02:47.000Z,99736.73
2018-11-29T12:08:05.700Z,99726.80
2018-11-29T12:13:25.591Z,99725.69
2018-11-29T12:18:45.461Z,99681.11
2018-11-29T12:24:04.041Z,99628.48
2018-11-29T12:29:22.571Z,99569.53
2018-11-29T12:34:41.221Z,99548.09
2018-11-29T12:39:59.826Z,99484.28
2018-11-29T12:45:18.472Z,99461.97
2018-11-29T12:50:38.715Z,99446.13
2018-11-29T12:55:57.340Z,99465.14
2018-11-29T13:01:16.509Z,99496.48
2018-11-29T13:06:35.098Z,99528.87
2018-11-29T13:11:53.748Z,99578.10
2018-11-29T13:17:12.219Z,99591.93
2018-11-29T13:22:30.761Z,99579.05
2018-11-29T13:27:49.360Z,99561.97
2018-11-29T13:33:09.328Z,99542.45
2018-11-29T13:38:27.862Z,99547.55
2018-11-29T13:43:47.006Z,99533.50
2018-11-29T13:49:06.031Z,99550.47
2018-11-29T13:54:24.600Z,99518.29
2018-11-29T13:59:43.190Z,99494.47
2018-11-29T14:05:01.711Z,99486.03
2018-11-29T14:10:22.344Z,99492.08
2018-11-29T14:15:40.858Z,99452.89
2018-11-29T14:20:59.395Z,99451.89
2018-11-29T14:26:17.960Z,99434.48
2018-11-29T14:31:36.534Z,99421.25
2018-11-29T14:36:55.124Z,99407.01
2018-11-29T14:42:13.653Z,99393.67
2018-11-29T14:47:32.228Z,99386.04
2018-11-29T14:52:50.798Z,99385.13
2018-11-29T14:58:11.725Z,99409.86
2018-11-29T15:03:30.278Z,99410.75
2018-11-29T15:08:48.904Z,99409.55
2018-11-29T15:14:07.459Z,99404.05
2018-11-29T15:19:26.028Z,99440.70
2018-11-29T15:24:44.559Z,99432.45
2018-11-29T15:30:05.042Z,99428.58
2018-11-29T15:35:23.679Z,99394.80
2018-11-29T15:40:42.220Z,99395.91
2018-11-29T15:46:01.482Z,99402.12
2018-11-29T15:51:19.991Z,99414.95
2018-11-29T15:56:38.555Z,99394.91
2018-11-29T16:01:57.093Z,99413.30
2018-11-29T16:07:16.382Z,99402.84
2018-11-29T16:12:34.972Z,99413.21
2018-11-29T16:17:53.851Z,99444.47
2018-11-29T16:23:13.206Z,99446.20
2018-11-29T16:28:31.785Z,99453.00
2018-11-29T16:33:50.253Z,99435.80
2018-11-29T16:39:08.904Z,99425.61
2018-11-29T16:44:28.313Z,99418.38
2018-11-29T16:49:46.926Z,99424.80
2018-11-29T16:55:08.037Z,99438.53
2018-11-29T17:00:26.624Z,99437.53
2018-11-29T17:05:45.164Z,99436.72
2018-11-29T17:11:03.714Z,99447.61
2018-11-29T17:16:22.316Z,99455.55
2018-11-29T17:21:41.209Z,99449.11
2018-11-29T17:26:59.887Z,99437.53
2018-11-29T17:32:18.427Z,99457.05
2018-11-29T17:37:37.064Z,99455.31
2018-11-29T17:42:56.388Z,99448.02
2018-11-29T17:48:14.976Z,99470.27
2018-11-29T17:53:34.809Z,99448.19
2018-11-29T17:58:53.425Z,99444.72
2018-11-29T18:04:12.043Z,99460.77
2018-11-29T18:09:30.562Z,99456.89
2018-11-29T18:14:49.123Z,99463.38
2018-11-29T18:20:09.924Z,99481.92
2018-11-29T18:25:29.405Z,99492.23
2018-11-29T18:30:47.902Z,99481.00
2018-11-29T18:36:07.193Z,99494.70
2018-11-29T18:41:25.955Z,99502.45
2018-11-29T18:46:44.542Z,99490.47
2018-11-29T18:52:03.046Z,99488.05
2018-11-29T18:57:21.621Z,99483.97
2018-11-29T19:02:40.200Z,99484.07
2018-11-29T19:07:58.705Z,99492.66
2018-11-29T19:13:17.355Z,99480.45
2018-11-29T19:18:36.138Z,99482.50
2018-11-29T19:23:54.679Z,99470.30
2018-11-29T19:29:13.746Z,99452.72
2018-11-29T19:34:32.298Z,99459.52
2018-11-29T19:39:50.936Z,99467.55
2018-11-29T19:45:12.010Z,99446.59
2018-11-29T19:50:31.439Z,99465.63
2018-11-29T19:55:51.537Z,99474.39
2018-11-29T20:01:10.350Z,99458.20
2018-11-29T20:06:29.847Z,99452.50
2018-11-29T20:11:48.379Z,99465.31
2018-11-29T20:17:07.162Z,99461.77
2018-11-29T20:22:26.509Z,99461.16
2018-11-29T20:27:45.338Z,99463.81
2018-11-29T20:33:03.884Z,99464.73
2018-11-29T20:38:22.361Z,99465.95
2018-11-29T20:43:40.942Z,99483.16
2018-11-29T20:48:59.588Z,99471.66
2018-11-29T20:54:18.339Z,99464.41
2018-11-29T20:59:37.106Z,99470.42
2018-11-29T21:04:56.463Z,99462.67
2018-11-29T21:10:21.792Z,99456.27
2018-11-29T21:15:41.809Z,99454.91
2018-11-29T21:21:00.394Z,99441.80
2018-11-29T21:26:18.999Z,99453.25
2018-11-29T21:31:39.025Z,99467.22
2018-11-29T21:36:58.297Z,99484.57
2018-11-29T21:42:16.801Z,99483.97
2018-11-29T21:47:35.353Z,99483.20
2018-11-29T21:52:53.876Z,99490.40
2018-11-29T21:58:13.182Z,99490.81
2018-11-29T22:03:31.692Z,99482.58
2018-11-29T22:08:50.981Z,99485.95
2018-11-29T22:14:09.513Z,99497.95
2018-11-29T22:19:27.993Z,99487.38
2018-11-29T22:24:46.557Z,99486.58
2018-11-29T22:30:07.227Z,99473.26
2018-11-29T22:35:25.743Z,99474.98
2018-11-29T22:40:45.068Z,99477.14
2018-11-29T22:46:03.737Z,99478.28
2018-11-29T22:51:22.253Z,99479.60
2018-11-29T22:56:41.403Z,99464.03
2018-11-29T23:01:59.901Z,99474.72
2018-11-29T23:07:18.583Z,99471.66
2018-11-29T23:12:37.154Z,99467.87
2018-11-29T23:17:55.698Z,99464.00
2018-11-29T23:23:14.912Z,99466.05
2018-11-29T23:28:33.937Z,99458.11
2018-11-29T23:33:52.489Z,99464.00
2018-11-29T23:39:11.078Z,99459.63
2018-11-29T23:44:29.670Z,99453.63
2018-11-29T23:49:48.245Z,99461.89
2018-11-29T23:55:08.753Z,99454.73
